Goodridge, Minnesota
Current Conditions -  °F | °C
As of 4:55 PM on Wednesday 22 Oct 2014 (Local Time) from KTVF Reporting Station
Overcast Overcast  
Wind Chill: 63°   Ceiling: 3900
Heat Index: 63°   Visibility: 10mi
Dew Point: 46°   Wind: 18mph
Humidity: 55%   Direction: 180°S
Pressure: 29.83"   Gusts: NA
Location:  48.14°N, 95.81°W
Report Text: KTVF 222155Z AUTO 18016KT 10SM OVC039 17/08 A2983 RMK AO1
Loading
Personal Weather Stations






























Interactive Weather Map
Tropical Storm Tracking
New forecast layout! Learn more

10-Day Weather Forecast

Advertisements
Track Severe Weather on mobile